Time;durP1;ratioP1;P1;durP2;ratioP2;P2;SDS_P1;SDS_P2;PMS_P1;PMS_P2;Temp;Humidity;BMP_temperature;BMP_pressure;BME280_temperature;BME280_humidity;BME280_pressure;Samples;Min_cycle;Max_cycle;Signal;HPM_P1;HPM_P2
2023/08/01 00:02:25;;;;;;;8.77;4.65;;;15.90;99.90;;;;;;5116142;28;20034;-58
2023/08/01 00:04:51;;;;;;;7.63;4.68;;;15.90;99.90;;;;;;5096952;28;20477;-58
2023/08/01 00:07:17;;;;;;;6.82;4.53;;;15.90;99.90;;;;;;5097480;28;20023;-57
2023/08/01 00:09:43;;;;;;;7.30;4.75;;;15.90;99.90;;;;;;5097514;28;20520;-57
2023/08/01 00:12:09;;;;;;;6.65;4.60;;;15.80;99.90;;;;;;5097336;28;20054;-57
2023/08/01 00:14:36;;;;;;;7.82;4.28;;;15.80;99.90;;;;;;5115670;28;20027;-57
2023/08/01 00:17:02;;;;;;;7.63;4.55;;;15.80;99.90;;;;;;5097416;28;20033;-57
2023/08/01 00:19:28;;;;;;;6.63;4.65;;;15.70;99.90;;;;;;5097544;28;20031;-58
2023/08/01 00:21:54;;;;;;;8.98;4.60;;;15.70;99.90;;;;;;5124962;27;20459;-58
2023/08/01 00:24:20;;;;;;;12.05;5.18;;;15.80;99.90;;;;;;5117739;27;20031;-58
2023/08/01 00:26:47;;;;;;;12.93;8.60;;;15.80;99.90;;;;;;5117675;27;20031;-58
2023/08/01 00:29:13;;;;;;;16.73;12.30;;;15.70;99.90;;;;;;5136266;27;20034;-57
2023/08/01 00:31:39;;;;;;;18.55;12.48;;;15.60;99.90;;;;;;5117704;27;20024;-57
2023/08/01 00:34:05;;;;;;;20.33;15.60;;;15.60;99.90;;;;;;5117465;27;20404;-57
2023/08/01 00:36:31;;;;;;;37.17;32.08;;;15.60;99.90;;;;;;5136354;27;20035;-58
2023/08/01 00:38:57;;;;;;;34.08;29.20;;;15.60;99.90;;;;;;5117500;27;20027;-58
2023/08/01 00:41:23;;;;;;;38.30;34.13;;;15.70;99.90;;;;;;5117562;27;20092;-57
2023/08/01 00:43:49;;;;;;;40.75;35.00;;;15.70;99.90;;;;;;5135945;27;20031;-57
2023/08/01 00:46:15;;;;;;;43.55;38.67;;;15.60;99.90;;;;;;5100075;27;20110;-57
2023/08/01 00:48:41;;;;;;;41.20;36.90;;;15.50;99.90;;;;;;5135847;27;20061;-58
2023/08/01 00:51:09;;;;;;;37.60;32.53;;;15.50;99.90;;;;;;5100508;27;20031;-58
2023/08/01 00:53:35;;;;;;;31.70;28.10;;;15.40;99.90;;;;;;5117197;27;20471;-58
2023/08/01 00:56:02;;;;;;;34.65;29.33;;;15.40;99.90;;;;;;5135663;27;20079;-58
2023/08/01 00:58:27;;;;;;;31.45;28.08;;;15.40;99.90;;;;;;5135513;27;20027;-57
2023/08/01 01:00:55;;;;;;;26.40;21.63;;;15.40;99.90;;;;;;5116735;27;20023;-57
2023/08/01 01:03:21;;;;;;;28.13;24.60;;;15.50;99.90;;;;;;5117163;27;20023;-58
2023/08/01 01:06:22;;;;;;;27.35;23.48;;;15.40;99.90;;;;;;5135415;27;20083;-58
2023/08/01 01:08:48;;;;;;;26.15;21.73;;;15.30;99.90;;;;;;5100087;27;20039;-57
2023/08/01 01:11:14;;;;;;;25.10;19.80;;;15.40;99.90;;;;;;5100056;28;20023;-58
2023/08/01 01:13:41;;;;;;;26.63;22.48;;;15.40;99.90;;;;;;5116827;28;20045;-57
2023/08/01 01:16:06;;;;;;;27.10;21.98;;;15.40;99.90;;;;;;5116856;27;20055;-58
2023/08/01 01:18:32;;;;;;;26.20;20.13;;;15.30;99.90;;;;;;5116988;28;20081;-57
2023/08/01 01:21:00;;;;;;;24.77;20.92;;;15.40;99.90;;;;;;5115629;28;20047;-58
2023/08/01 01:23:27;;;;;;;24.33;19.08;;;15.30;99.90;;;;;;5114760;28;20494;-57
2023/08/01 01:25:54;;;;;;;26.58;20.00;;;15.30;99.90;;;;;;5096662;28;20035;-58
2023/08/01 01:28:21;;;;;;;23.85;18.80;;;15.10;99.90;;;;;;5114630;28;20076;-57
2023/08/01 01:30:50;;;;;;;23.42;18.70;;;15.10;99.90;;;;;;5096536;28;20050;-57
2023/08/01 01:33:16;;;;;;;28.80;21.33;;;15.20;99.90;;;;;;5114677;28;20049;-57
2023/08/01 01:35:42;;;;;;;28.55;22.17;;;15.10;99.90;;;;;;5115015;28;20043;-57
2023/08/01 01:38:09;;;;;;;34.88;22.17;;;15.10;99.90;;;;;;5096496;28;20024;-57
2023/08/01 01:40:35;;;;;;;35.00;23.98;;;15.00;99.90;;;;;;5096462;28;20058;-57
2023/08/01 01:43:01;;;;;;;40.78;26.35;;;15.00;99.90;;;;;;5079889;28;20438;-57
2023/08/01 01:45:27;;;;;;;33.38;22.42;;;14.90;99.90;;;;;;5096291;28;20032;-57
2023/08/01 01:47:53;;;;;;;29.95;19.33;;;14.90;99.90;;;;;;5096380;28;20031;-57
2023/08/01 01:50:19;;;;;;;27.90;18.10;;;14.90;99.90;;;;;;5114441;28;20076;-58
2023/08/01 01:52:46;;;;;;;20.27;14.32;;;14.90;99.90;;;;;;5079429;28;20114;-57
2023/08/01 01:55:12;;;;;;;20.85;12.75;;;14.80;99.90;;;;;;5114704;28;20024;-57
2023/08/01 01:57:38;;;;;;;21.05;12.70;;;14.80;99.90;;;;;;5096220;28;20023;-57
2023/08/01 02:00:06;;;;;;;18.42;12.10;;;14.80;99.90;;;;;;5096295;28;20085;-57
2023/08/01 02:02:38;;;;;;;14.35;10.10;;;14.80;99.90;;;;;;5114587;28;20036;-58
2023/08/01 02:05:05;;;;;;;12.40;9.50;;;14.90;99.90;;;;;;5079192;28;20044;-57
2023/08/01 02:07:31;;;;;;;9.98;5.45;;;14.80;99.90;;;;;;5113891;28;20031;-57
2023/08/01 02:09:57;;;;;;;9.80;5.72;;;14.80;99.90;;;;;;5114266;28;20028;-57
2023/08/01 02:12:23;;;;;;;9.30;5.60;;;14.70;99.90;;;;;;5114067;28;20550;-57
2023/08/01 02:14:49;;;;;;;8.55;5.60;;;14.70;99.90;;;;;;5114048;28;20062;-57
2023/08/01 02:17:16;;;;;;;7.78;5.18;;;14.70;99.90;;;;;;5096106;28;20042;-57
2023/08/01 02:19:42;;;;;;;8.80;5.53;;;14.60;99.90;;;;;;5114357;28;20027;-57
2023/08/01 02:22:08;;;;;;;8.90;5.32;;;14.70;99.90;;;;;;5106908;28;20038;-57
2023/08/01 02:24:33;;;;;;;15.30;6.38;;;14.60;99.90;;;;;;5116319;28;20035;-57
2023/08/01 02:26:59;;;;;;;14.15;5.57;;;14.60;99.90;;;;;;5134879;28;20517;-57
2023/08/01 02:29:25;;;;;;;6.55;4.53;;;14.60;99.90;;;;;;5152479;27;20019;-57
2023/08/01 02:31:51;;;;;;;7.03;4.60;;;14.50;99.90;;;;;;5103133;27;20027;-58
2023/08/01 02:34:17;;;;;;;9.30;4.68;;;14.50;99.90;;;;;;5119646;27;20109;-57
2023/08/01 02:36:43;;;;;;;11.05;5.28;;;14.50;99.90;;;;;;5120133;27;20035;-57
2023/08/01 02:39:08;;;;;;;7.07;4.47;;;14.50;99.90;;;;;;5138126;27;20376;-58
2023/08/01 02:41:35;;;;;;;6.55;4.47;;;14.50;99.90;;;;;;5119903;27;20091;-58
2023/08/01 02:44:01;;;;;;;8.63;4.45;;;14.40;99.90;;;;;;5138170;27;20031;-58
2023/08/01 02:46:29;;;;;;;7.25;4.65;;;14.40;99.90;;;;;;5138060;27;20138;-57
2023/08/01 02:48:55;;;;;;;6.85;4.28;;;14.30;99.90;;;;;;5138293;27;20479;-58
2023/08/01 02:51:21;;;;;;;6.15;4.22;;;14.40;99.90;;;;;;5119940;27;20065;-57
2023/08/01 02:53:47;;;;;;;9.05;4.32;;;14.40;99.90;;;;;;5137993;27;20023;-57
2023/08/01 02:56:13;;;;;;;9.90;4.90;;;14.40;99.90;;;;;;5137961;27;20027;-58
2023/08/01 02:58:38;;;;;;;8.55;5.00;;;14.40;99.90;;;;;;5119456;27;20508;-57
2023/08/01 03:01:12;;;;;;;8.75;5.22;;;14.30;99.90;;;;;;5137882;27;20023;-58
2023/08/01 03:03:37;;;;;;;7.78;4.72;;;14.30;99.90;;;;;;5119206;27;20506;-58
2023/08/01 03:06:03;;;;;;;6.28;4.50;;;14.30;99.90;;;;;;5137864;27;20035;-57
2023/08/01 03:08:29;;;;;;;7.07;4.47;;;14.30;99.90;;;;;;5137769;27;20376;-57
2023/08/01 03:10:55;;;;;;;7.75;5.05;;;14.30;99.90;;;;;;5137798;27;20110;-58
2023/08/01 03:13:22;;;;;;;8.73;5.03;;;14.30;99.90;;;;;;5119127;27;20027;-57
2023/08/01 03:15:48;;;;;;;9.18;5.13;;;14.30;99.90;;;;;;5119114;27;20556;-57
2023/08/01 03:18:13;;;;;;;7.07;4.28;;;14.30;99.90;;;;;;5137715;27;20027;-57
2023/08/01 03:20:40;;;;;;;8.15;4.95;;;14.20;99.90;;;;;;5137518;27;20091;-57
2023/08/01 03:23:06;;;;;;;8.05;4.50;;;14.30;99.90;;;;;;5118218;27;20020;-57
2023/08/01 03:25:32;;;;;;;7.07;4.10;;;14.30;99.90;;;;;;5098802;28;20032;-58
2023/08/01 03:27:58;;;;;;;7.15;4.55;;;14.20;99.90;;;;;;5116844;28;20024;-58
2023/08/01 03:30:24;;;;;;;7.10;4.47;;;14.10;99.90;;;;;;5116962;28;20353;-57
2023/08/01 03:32:50;;;;;;;9.15;4.55;;;14.20;99.90;;;;;;5116764;28;20031;-57
2023/08/01 03:35:16;;;;;;;6.05;4.13;;;14.20;99.90;;;;;;5116648;28;20028;-58
2023/08/01 03:37:42;;;;;;;9.10;4.43;;;14.20;99.90;;;;;;5098556;28;20031;-57
2023/08/01 03:40:10;;;;;;;7.80;4.28;;;14.20;99.90;;;;;;5098208;28;20035;-57
2023/08/01 03:42:40;;;;;;;7.25;4.15;;;14.30;99.90;;;;;;5098191;28;20023;-57
2023/08/01 03:45:07;;;;;;;9.82;4.35;;;14.30;99.90;;;;;;5116356;28;20381;-57
2023/08/01 03:47:33;;;;;;;6.35;4.38;;;14.30;99.90;;;;;;5116454;28;20377;-57
2023/08/01 03:49:59;;;;;;;6.75;4.05;;;14.30;99.90;;;;;;5116388;28;20034;-58
2023/08/01 03:52:26;;;;;;;8.73;5.22;;;14.30;99.90;;;;;;5116531;28;20030;-57
2023/08/01 03:54:55;;;;;;;7.28;4.60;;;14.30;99.90;;;;;;5116327;28;20102;-58
2023/08/01 03:57:22;;;;;;;5.88;4.15;;;14.30;99.90;;;;;;5116073;28;20524;-57
2023/08/01 03:59:48;;;;;;;7.65;4.32;;;14.30;99.90;;;;;;5097855;28;20031;-57
2023/08/01 04:02:13;;;;;;;10.80;4.68;;;14.30;99.90;;;;;;5116257;28;20052;-57
2023/08/01 04:04:39;;;;;;;10.50;5.85;;;14.40;99.90;;;;;;5115802;28;20799;-57
2023/08/01 04:07:05;;;;;;;10.18;5.28;;;14.40;99.90;;;;;;5116198;28;20028;-57
2023/08/01 04:09:31;;;;;;;9.50;4.50;;;14.50;99.90;;;;;;5097565;28;20152;-57
2023/08/01 04:11:57;;;;;;;7.03;4.70;;;14.50;99.90;;;;;;5115943;28;20623;-57
2023/08/01 04:14:23;;;;;;;8.65;4.93;;;14.50;99.90;;;;;;5115936;28;20515;-58
2023/08/01 04:16:49;;;;;;;6.93;4.57;;;14.50;99.90;;;;;;5115852;28;20480;-58
2023/08/01 04:19:15;;;;;;;7.75;5.00;;;14.60;99.90;;;;;;5115778;28;20420;-58
2023/08/01 04:21:41;;;;;;;7.68;4.40;;;14.60;99.90;;;;;;5122692;27;20023;-58
2023/08/01 04:24:06;;;;;;;11.18;5.60;;;14.70;99.90;;;;;;5136238;27;20042;-57
2023/08/01 04:26:32;;;;;;;16.05;5.82;;;14.70;99.90;;;;;;5136035;27;20039;-57
2023/08/01 04:28:58;;;;;;;12.52;5.57;;;14.70;99.90;;;;;;5136257;27;20110;-57
2023/08/01 04:31:24;;;;;;;8.63;5.13;;;14.80;99.90;;;;;;5136179;27;20027;-57
2023/08/01 04:33:50;;;;;;;10.60;4.88;;;14.90;99.90;;;;;;5135951;27;20353;-58
2023/08/01 04:36:16;;;;;;;8.13;4.70;;;14.90;99.90;;;;;;5136127;27;20114;-58
2023/08/01 04:38:41;;;;;;;6.10;4.70;;;14.90;99.90;;;;;;5135920;27;20034;-57
2023/08/01 04:41:07;;;;;;;13.25;4.90;;;14.90;99.90;;;;;;5135875;27;20031;-58
2023/08/01 04:43:33;;;;;;;13.25;5.30;;;15.10;99.90;;;;;;5135760;27;20472;-57
2023/08/01 04:45:59;;;;;;;14.25;5.72;;;15.10;99.90;;;;;;5135770;27;20050;-57
2023/08/01 04:48:25;;;;;;;10.93;5.28;;;15.20;99.90;;;;;;5135864;27;20028;-57
2023/08/01 04:50:51;;;;;;;8.65;5.10;;;15.30;99.90;;;;;;5135674;27;20031;-57
2023/08/01 04:53:17;;;;;;;9.02;5.10;;;15.40;99.90;;;;;;5135281;27;20023;-57
2023/08/01 04:55:42;;;;;;;10.57;5.55;;;15.40;99.90;;;;;;5136170;27;20031;-58
2023/08/01 04:58:08;;;;;;;19.33;7.00;;;15.50;99.90;;;;;;5135641;27;20468;-58
2023/08/01 05:00:34;;;;;;;14.10;6.28;;;15.60;99.90;;;;;;5135638;27;20087;-57
2023/08/01 05:03:00;;;;;;;11.43;5.25;;;15.70;99.90;;;;;;5117236;27;20548;-57
2023/08/01 05:05:26;;;;;;;14.80;5.47;;;15.80;99.90;;;;;;5135440;27;20039;-57
2023/08/01 05:07:52;;;;;;;10.82;5.95;;;16.00;99.90;;;;;;5135587;27;20061;-58
2023/08/01 05:10:18;;;;;;;12.77;5.65;;;16.10;99.90;;;;;;5135843;27;20019;-58
2023/08/01 05:12:44;;;;;;;11.07;5.55;;;16.20;99.90;;;;;;5135488;27;20079;-57
2023/08/01 05:15:10;;;;;;;6.88;4.97;;;16.20;99.90;;;;;;5135204;28;20024;-57
2023/08/01 05:17:35;;;;;;;15.23;6.05;;;16.40;99.90;;;;;;5133734;28;20071;-57
2023/08/01 05:20:04;;;;;;;13.43;6.38;;;16.50;99.90;;;;;;5135043;28;20117;-58
2023/08/01 05:22:30;;;;;;;12.90;5.30;;;16.60;99.90;;;;;;5120899;28;20024;-57
2023/08/01 05:24:55;;;;;;;16.83;6.15;;;16.70;99.90;;;;;;5114969;28;20035;-58
2023/08/01 05:27:21;;;;;;;13.18;5.70;;;16.80;99.90;;;;;;5114546;28;20069;-57
2023/08/01 05:29:47;;;;;;;16.08;6.07;;;16.70;99.90;;;;;;5115529;28;20051;-57
2023/08/01 05:32:13;;;;;;;17.38;6.20;;;16.70;99.90;;;;;;5115468;28;20032;-58
2023/08/01 05:34:39;;;;;;;21.35;6.20;;;16.90;99.90;;;;;;5115474;28;20027;-57
2023/08/01 05:37:05;;;;;;;18.15;6.90;;;17.10;99.90;;;;;;5115526;28;20023;-57
2023/08/01 05:39:31;;;;;;;13.10;6.22;;;17.30;99.90;;;;;;5114473;28;20439;-58
2023/08/01 05:41:57;;;;;;;17.48;6.50;;;17.40;99.90;;;;;;5096238;28;20036;-58
2023/08/01 05:44:22;;;;;;;16.20;6.15;;;17.50;99.90;;;;;;5114398;28;20224;-58
2023/08/01 05:46:48;;;;;;;14.18;7.03;;;17.60;99.90;;;;;;5114180;28;20028;-58
2023/08/01 05:49:14;;;;;;;18.05;6.93;;;17.70;99.90;;;;;;5096473;28;20370;-57
2023/08/01 05:51:40;;;;;;;16.38;6.10;;;17.80;99.90;;;;;;5114430;28;20039;-58
2023/08/01 05:54:06;;;;;;;11.75;5.35;;;17.80;99.90;;;;;;5114502;28;20035;-57
2023/08/01 05:56:32;;;;;;;12.35;5.40;;;18.00;99.90;;;;;;5114341;28;20128;-57
2023/08/01 05:58:58;;;;;;;14.30;5.72;;;18.10;99.90;;;;;;5122734;28;20020;-57
2023/08/01 06:01:24;;;;;;;13.20;5.47;;;18.30;99.90;;;;;;5134948;28;20036;-57
2023/08/01 06:03:50;;;;;;;12.80;5.68;;;18.40;99.90;;;;;;5135447;27;20110;-58
2023/08/01 06:06:17;;;;;;;9.98;4.97;;;18.50;99.90;;;;;;5128190;27;20540;-58
2023/08/01 06:08:43;;;;;;;10.88;5.63;;;18.70;99.90;;;;;;5099360;28;20381;-58
2023/08/01 06:11:09;;;;;;;16.40;6.28;;;18.80;99.90;;;;;;5118194;28;20024;-57
2023/08/01 06:13:35;;;;;;;21.55;6.13;;;18.90;99.90;;;;;;5117871;28;20069;-58
2023/08/01 06:16:01;;;;;;;22.13;7.30;;;19.00;99.90;;;;;;5117731;28;20027;-58
2023/08/01 06:18:27;;;;;;;22.88;7.68;;;19.10;99.90;;;;;;5117909;28;20028;-57
2023/08/01 06:20:57;;;;;;;13.30;7.00;;;19.30;99.90;;;;;;5117728;28;20050;-58
2023/08/01 06:23:23;;;;;;;19.10;7.68;;;19.40;99.90;;;;;;5118079;28;20035;-58
2023/08/01 06:25:55;;;;;;;24.80;7.13;;;19.40;99.90;;;;;;5099891;28;20503;-58
2023/08/01 06:28:22;;;;;;;18.85;6.82;;;19.40;99.90;;;;;;5117725;28;20479;-58
2023/08/01 06:30:48;;;;;;;19.50;6.35;;;19.50;99.90;;;;;;5117728;28;20075;-57
2023/08/01 06:33:14;;;;;;;15.38;5.95;;;19.80;99.90;;;;;;5117426;28;20023;-57
2023/08/01 06:35:40;;;;;;;14.13;5.63;;;19.90;99.90;;;;;;5117535;28;20028;-57
2023/08/01 06:38:06;;;;;;;17.02;5.32;;;20.10;99.90;;;;;;5117792;28;20108;-57
2023/08/01 06:40:32;;;;;;;16.75;6.43;;;20.30;99.90;;;;;;5117020;28;20042;-58
2023/08/01 06:42:58;;;;;;;14.38;5.32;;;20.50;99.90;;;;;;5117248;28;20392;-58
2023/08/01 06:45:24;;;;;;;23.85;7.43;;;20.70;99.90;;;;;;5116907;28;20404;-57
2023/08/01 06:47:49;;;;;;;16.55;5.65;;;20.80;99.90;;;;;;5117009;28;20028;-57
2023/08/01 06:50:15;;;;;;;17.65;5.43;;;21.00;99.90;;;;;;5117279;28;20076;-57
2023/08/01 06:52:41;;;;;;;15.15;6.13;;;21.10;99.90;;;;;;5117419;28;20098;-58
2023/08/01 06:55:07;;;;;;;12.68;5.60;;;21.30;99.90;;;;;;5116940;28;20261;-58
2023/08/01 06:57:33;;;;;;;18.25;5.85;;;21.40;99.90;;;;;;5116971;28;20035;-58
2023/08/01 06:59:59;;;;;;;15.02;5.20;;;21.60;99.90;;;;;;5117220;28;20027;-57
2023/08/01 07:02:25;;;;;;;14.23;5.88;;;21.90;99.90;;;;;;5116912;28;20030;-58
2023/08/01 07:04:51;;;;;;;12.15;4.30;;;22.20;99.90;;;;;;5116639;28;20111;-58
2023/08/01 07:07:17;;;;;;;9.23;4.38;;;22.50;99.00;;;;;;5117270;28;20039;-58
2023/08/01 07:09:43;;;;;;;14.07;4.88;;;22.70;98.90;;;;;;5116606;28;20499;-58
2023/08/01 07:12:08;;;;;;;10.65;4.38;;;23.00;98.20;;;;;;5116928;28;20020;-58
2023/08/01 07:14:34;;;;;;;7.88;4.00;;;23.20;95.70;;;;;;5116335;28;20035;-58
2023/08/01 07:17:00;;;;;;;14.80;5.13;;;23.30;95.50;;;;;;5116413;28;20031;-57
2023/08/01 07:19:26;;;;;;;11.18;4.32;;;23.70;95.30;;;;;;5117376;27;20032;-58
2023/08/01 07:21:52;;;;;;;10.60;4.60;;;23.90;92.40;;;;;;5126152;27;20125;-58
2023/08/01 07:24:19;;;;;;;15.45;4.68;;;24.30;94.40;;;;;;5119173;27;20038;-58
2023/08/01 07:26:45;;;;;;;15.88;5.20;;;24.60;92.90;;;;;;5137449;27;20114;-58
2023/08/01 07:29:12;;;;;;;14.07;4.38;;;24.90;91.60;;;;;;5138014;27;20043;-58
2023/08/01 07:31:38;;;;;;;9.43;4.28;;;25.30;87.60;;;;;;5119131;27;20042;-58
2023/08/01 07:34:04;;;;;;;8.73;4.38;;;25.50;84.40;;;;;;5137919;27;20015;-58
2023/08/01 07:36:30;;;;;;;12.07;6.57;;;25.90;82.80;;;;;;5137575;27;20369;-58
2023/08/01 07:38:56;;;;;;;10.40;4.40;;;26.30;81.20;;;;;;5137545;27;20027;-58
2023/08/01 07:41:22;;;;;;;12.45;4.55;;;26.50;76.90;;;;;;5137722;27;20086;-58
2023/08/01 07:43:48;;;;;;;14.57;4.60;;;26.70;76.50;;;;;;5137601;27;20027;-58
2023/08/01 07:46:17;;;;;;;13.27;4.30;;;27.10;78.30;;;;;;5130899;27;20772;-58
2023/08/01 07:48:43;;;;;;;8.55;3.90;;;27.40;74.60;;;;;;5116953;28;20028;-58
2023/08/01 07:51:11;;;;;;;7.75;4.03;;;27.60;71.30;;;;;;5117011;28;20080;-58
2023/08/01 07:53:37;;;;;;;8.77;3.70;;;27.90;69.10;;;;;;5116676;28;20024;-58
2023/08/01 07:56:03;;;;;;;6.53;3.65;;;28.20;71.20;;;;;;5116721;28;20031;-58
2023/08/01 07:58:30;;;;;;;9.48;3.30;;;28.50;67.20;;;;;;5116692;28;20030;-58
2023/08/01 08:00:56;;;;;;;6.65;3.78;;;28.70;65.80;;;;;;5116718;28;20051;-58
2023/08/01 08:03:23;;;;;;;11.27;4.35;;;28.90;67.60;;;;;;5116702;28;20035;-58
2023/08/01 08:05:50;;;;;;;6.07;3.67;;;28.70;59.90;;;;;;5115539;28;20078;-58
2023/08/01 08:08:16;;;;;;;8.15;4.40;;;29.10;67.60;;;;;;5115501;28;20090;-58
2023/08/01 08:10:44;;;;;;;7.30;3.95;;;29.50;67.10;;;;;;5115888;28;20023;-58
2023/08/01 08:13:14;;;;;;;9.40;4.25;;;29.70;60.80;;;;;;5115429;28;20556;-58
2023/08/01 08:15:41;;;;;;;5.00;2.78;;;30.00;59.50;;;;;;5115394;28;20026;-58
2023/08/01 08:18:08;;;;;;;5.45;3.10;;;29.20;52.40;;;;;;5115944;28;20023;-58
2023/08/01 08:20:47;;;;;;;5.03;3.00;;;28.20;55.10;;;;;;5115523;28;20084;-58
2023/08/01 08:23:16;;;;;;;10.00;4.40;;;29.00;56.40;;;;;;5135682;27;20035;-58
2023/08/01 08:25:46;;;;;;;7.75;4.20;;;29.60;57.40;;;;;;5135748;27;20468;-58
2023/08/01 08:28:13;;;;;;;12.43;4.32;;;30.10;54.10;;;;;;5135277;27;20015;-58
2023/08/01 08:30:39;;;;;;;11.65;4.32;;;30.60;53.30;;;;;;5117522;27;20023;-58
2023/08/01 08:33:06;;;;;;;6.50;3.30;;;30.90;52.40;;;;;;5135906;27;20027;-58
2023/08/01 08:35:35;;;;;;;8.25;3.80;;;30.90;53.10;;;;;;5135888;27;20034;-58
2023/08/01 08:38:06;;;;;;;12.63;3.97;;;30.00;49.70;;;;;;5135767;27;20023;-58
2023/08/01 08:40:33;;;;;;;3.40;2.42;;;30.90;51.30;;;;;;5135873;27;20144;-58
2023/08/01 08:43:03;;;;;;;8.13;3.38;;;30.50;46.60;;;;;;5135398;27;20118;-58
2023/08/01 08:45:33;;;;;;;7.13;2.90;;;30.00;49.20;;;;;;5133715;27;20110;-58
2023/08/01 08:48:09;;;;;;;5.05;2.65;;;30.90;47.20;;;;;;5135941;27;20019;-58
2023/08/01 08:50:36;;;;;;;5.38;2.88;;;31.20;45.30;;;;;;5136330;27;20026;-58
2023/08/01 08:53:02;;;;;;;5.90;2.95;;;31.30;48.00;;;;;;5136044;27;20038;-58
2023/08/01 08:55:29;;;;;;;8.38;3.20;;;31.30;45.80;;;;;;5136422;27;20105;-58
2023/08/01 08:57:56;;;;;;;9.35;2.85;;;32.00;49.50;;;;;;5135181;27;20026;-58
2023/08/01 09:00:22;;;;;;;5.38;3.25;;;32.00;45.10;;;;;;5135358;27;20027;-58
2023/08/01 09:02:48;;;;;;;4.50;2.60;;;32.50;47.70;;;;;;5136180;27;20026;-58
2023/08/01 09:05:14;;;;;;;7.15;2.97;;;31.90;43.80;;;;;;5135567;27;20122;-58
2023/08/01 09:07:44;;;;;;;7.10;3.13;;;32.50;44.10;;;;;;5117943;27;20020;-58
2023/08/01 09:10:10;;;;;;;;;;;33.10;43.30;;;;;;5115198;28;20035;-58
2023/08/01 09:12:36;;;;;;;7.88;3.15;;;32.50;42.50;;;;;;5114723;28;20349;-58
2023/08/01 09:15:02;;;;;;;8.13;2.95;;;32.50;42.60;;;;;;5115106;28;20422;-58
2023/08/01 09:17:28;;;;;;;3.80;2.88;;;32.10;40.30;;;;;;5115588;28;20034;-58
2023/08/01 09:20:07;;;;;;;6.47;2.63;;;31.70;40.30;;;;;;5115575;28;20027;-58
2023/08/01 09:22:44;;;;;;;4.10;2.70;;;32.60;40.80;;;;;;5129944;28;20042;-58
2023/08/01 09:25:12;;;;;;;5.20;2.95;;;33.40;40.00;;;;;;5135931;28;20468;-58
2023/08/01 09:27:38;;;;;;;5.80;3.25;;;33.60;36.40;;;;;;5136057;28;20027;-58
2023/08/01 09:30:13;;;;;;;3.83;2.58;;;33.80;36.40;;;;;;5136010;28;20033;-58
2023/08/01 09:32:39;;;;;;;7.25;2.90;;;33.80;37.50;;;;;;5135852;28;20058;-58
2023/08/01 09:35:12;;;;;;;5.20;2.95;;;34.10;37.20;;;;;;5135943;28;20020;-58
2023/08/01 09:37:41;;;;;;;6.03;3.00;;;33.40;33.20;;;;;;5135834;27;20045;-58
2023/08/01 09:40:08;;;;;;;7.22;3.03;;;33.70;42.10;;;;;;5140078;27;20110;-58
2023/08/01 09:42:39;;;;;;;7.68;2.95;;;33.80;37.30;;;;;;5140254;27;20034;-58
2023/08/01 09:45:15;;;;;;;6.20;2.70;;;34.30;34.60;;;;;;5139728;27;20480;-58
2023/08/01 09:47:45;;;;;;;4.20;2.78;;;34.70;36.10;;;;;;5139778;27;20106;-58
2023/08/01 09:50:19;;;;;;;3.92;2.65;;;34.40;32.10;;;;;;5140062;27;20023;-58
2023/08/01 09:52:52;;;;;;;3.63;2.72;;;34.70;30.90;;;;;;5139931;27;20072;-58
2023/08/01 09:55:34;;;;;;;4.70;2.90;;;34.80;33.80;;;;;;5139792;27;20380;-58
2023/08/01 09:58:01;;;;;;;4.60;2.55;;;35.10;33.80;;;;;;5139805;27;20075;-58
2023/08/01 10:00:29;;;;;;;12.90;3.67;;;35.00;34.20;;;;;;5139511;27;20019;-58
2023/08/01 10:02:59;;;;;;;3.47;2.70;;;34.80;29.80;;;;;;5139775;27;20119;-58
2023/08/01 10:05:31;;;;;;;7.00;3.70;;;35.00;31.40;;;;;;5139572;27;20118;-58
2023/08/01 10:08:00;;;;;;;15.48;4.07;;;34.00;30.40;;;;;;5119787;27;20036;-58
2023/08/01 10:10:29;;;;;;;7.73;2.87;;;33.40;35.60;;;;;;5118937;28;20023;-58
2023/08/01 10:12:57;;;;;;;4.28;2.63;;;34.30;38.40;;;;;;5119059;28;20394;-58
2023/08/01 10:15:26;;;;;;;3.85;2.63;;;34.70;36.20;;;;;;5118603;28;20066;-58
2023/08/01 10:17:52;;;;;;;11.00;3.97;;;35.10;34.00;;;;;;5119057;28;20050;-58
2023/08/01 10:20:19;;;;;;;4.38;2.38;;;35.40;31.50;;;;;;5118789;28;20031;-58
2023/08/01 10:22:49;;;;;;;9.85;3.60;;;34.50;30.00;;;;;;5134728;27;20051;-58
2023/08/01 10:25:17;;;;;;;11.70;3.35;;;34.50;31.30;;;;;;5139256;27;20027;-58
2023/08/01 10:27:43;;;;;;;6.28;2.67;;;33.70;30.40;;;;;;5139299;27;20026;-58
2023/08/01 10:30:09;;;;;;;3.70;2.53;;;33.80;30.90;;;;;;5138960;27;20019;-58
2023/08/01 10:32:39;;;;;;;4.43;2.47;;;34.80;33.00;;;;;;5139108;27;20031;-58
2023/08/01 10:35:06;;;;;;;;;;;35.20;31.20;;;;;;5138634;27;20031;-58
2023/08/01 10:37:47;;;;;;;16.88;3.58;;;35.60;29.90;;;;;;5118118;28;19908;-58
2023/08/01 10:40:13;;;;;;;3.85;2.58;;;35.10;28.60;;;;;;5118862;28;20107;-58
2023/08/01 10:42:43;;;;;;;2.78;1.95;;;35.40;29.00;;;;;;5118336;28;20024;-58
2023/08/01 10:45:29;;;;;;;5.60;3.60;;;35.20;29.70;;;;;;5118056;28;21983;-58
2023/08/01 10:48:07;;;;;;;6.65;3.78;;;34.90;29.60;;;;;;5117982;28;20520;-58
2023/08/01 10:50:33;;;;;;;6.03;3.05;;;35.00;31.80;;;;;;5117321;28;20508;-58
2023/08/01 10:53:09;;;;;;;5.45;3.67;;;35.00;32.10;;;;;;5118125;28;20027;-58
2023/08/01 10:55:43;;;;;;;4.00;2.35;;;35.20;34.40;;;;;;5118104;28;20118;-58
2023/08/01 10:58:10;;;;;;;5.82;2.33;;;35.10;29.40;;;;;;5117750;28;20024;-58
2023/08/01 11:00:36;;;;;;;4.45;3.13;;;35.60;30.80;;;;;;5118022;28;20067;-58
2023/08/01 11:03:02;;;;;;;11.00;3.75;;;36.30;28.80;;;;;;5118163;28;20030;-58
2023/08/01 11:05:29;;;;;;;6.13;3.15;;;36.60;27.50;;;;;;5117414;28;20040;-58
2023/08/01 11:07:57;;;;;;;3.58;2.33;;;36.60;28.40;;;;;;5117926;28;20043;-58
2023/08/01 11:10:33;;;;;;;3.80;2.42;;;36.10;27.00;;;;;;5118088;28;20123;-58
2023/08/01 11:12:59;;;;;;;3.78;2.70;;;34.80;26.90;;;;;;5117616;28;20364;-58
2023/08/01 11:15:25;;;;;;;4.82;2.38;;;35.80;29.40;;;;;;5117834;28;20032;-58
2023/08/01 11:17:53;;;;;;;3.80;2.63;;;36.30;26.90;;;;;;5117559;28;20044;-58
2023/08/01 11:20:24;;;;;;;2.83;2.25;;;35.80;26.00;;;;;;5117257;28;20028;-58
2023/08/01 11:22:57;;;;;;;3.45;2.38;;;36.20;26.00;;;;;;5115343;28;20514;-58
2023/08/01 11:25:43;;;;;;;6.85;2.85;;;36.40;26.20;;;;;;5117105;28;20039;-58
2023/08/01 11:28:15;;;;;;;3.35;2.20;;;36.90;26.60;;;;;;5117302;28;20043;-58
2023/08/01 11:30:41;;;;;;;4.47;2.70;;;36.90;25.40;;;;;;5117523;28;20069;-58
2023/08/01 11:33:20;;;;;;;4.05;2.45;;;37.00;27.30;;;;;;5117256;28;20039;-58
2023/08/01 11:35:59;;;;;;;6.75;3.00;;;37.50;27.70;;;;;;5117486;28;20031;-58
2023/08/01 11:38:29;;;;;;;23.07;4.83;;;36.50;25.60;;;;;;5117493;28;20026;-58
2023/08/01 11:41:00;;;;;;;14.13;3.38;;;35.90;27.50;;;;;;5117108;28;20043;-58
2023/08/01 11:43:26;;;;;;;7.43;2.60;;;36.90;28.40;;;;;;5117144;28;20476;-58
2023/08/01 11:45:54;;;;;;;5.97;2.25;;;36.90;24.90;;;;;;5116787;28;20027;-58
2023/08/01 11:48:24;;;;;;;3.90;2.47;;;36.40;26.50;;;;;;5116611;28;20023;-58
2023/08/01 11:50:56;;;;;;;9.13;3.17;;;37.10;25.30;;;;;;5116604;28;20027;-58
2023/08/01 11:53:22;;;;;;;8.88;3.40;;;37.10;29.30;;;;;;5116825;28;20035;-58
2023/08/01 11:55:52;;;;;;;5.15;2.78;;;36.80;25.70;;;;;;5116977;28;20046;-58
2023/08/01 11:58:31;;;;;;;5.20;2.90;;;36.50;28.90;;;;;;5116488;28;20031;-58
2023/08/01 12:01:13;;;;;;;9.23;3.80;;;37.10;27.80;;;;;;5116883;28;20032;-58
2023/08/01 12:03:47;;;;;;;3.92;2.88;;;37.00;26.60;;;;;;5116610;28;20051;-59
2023/08/01 12:06:14;;;;;;;5.45;2.90;;;36.60;23.20;;;;;;5116433;28;20042;-58
2023/08/01 12:08:45;;;;;;;6.80;3.53;;;36.80;26.60;;;;;;5116533;28;20027;-58
2023/08/01 12:11:29;;;;;;;6.18;3.03;;;37.10;27.80;;;;;;5114420;28;20110;-58
2023/08/01 12:14:10;;;;;;;6.82;2.50;;;36.50;27.10;;;;;;5116436;28;20103;-58
2023/08/01 12:16:38;;;;;;;8.02;3.10;;;36.80;27.70;;;;;;5116361;28;20055;-58
2023/08/01 12:19:05;;;;;;;5.75;2.65;;;36.90;29.10;;;;;;5116268;28;20024;-58
2023/08/01 12:21:33;;;;;;;5.95;2.92;;;36.90;24.20;;;;;;5116173;28;20106;-58
2023/08/01 12:24:02;;;;;;;5.10;2.92;;;36.90;28.20;;;;;;5116320;28;20027;-58
2023/08/01 12:26:29;;;;;;;;;;;36.30;29.70;;;;;;5116548;28;20036;-58
2023/08/01 12:28:55;;;;;;;10.55;3.33;;;35.80;31.00;;;;;;5116256;28;20052;-58
2023/08/01 12:31:22;;;;;;;9.45;2.80;;;35.80;33.50;;;;;;5116274;28;20467;-58
2023/08/01 12:33:48;;;;;;;9.18;3.08;;;36.40;30.30;;;;;;5115999;28;20043;-58
2023/08/01 12:36:15;;;;;;;4.50;2.55;;;36.40;27.30;;;;;;5115828;28;20034;-58
2023/08/01 12:38:41;;;;;;;6.40;3.22;;;35.70;29.30;;;;;;5116066;28;20039;-58
2023/08/01 12:41:07;;;;;;;4.43;2.70;;;35.30;28.20;;;;;;5116098;28;20063;-58
2023/08/01 12:43:33;;;;;;;2.97;2.65;;;35.30;30.40;;;;;;5115871;28;20552;-58
2023/08/01 12:45:59;;;;;;;4.07;2.13;;;35.60;33.80;;;;;;5111618;27;20031;-58